sensor_id;sensor_type;location;lat;lon;timestamp;temperature;humidity
10883;DHT22;5494;51.796;10.952;2022-07-05T00:02:22;16.70;99.90
10883;DHT22;5494;51.796;10.952;2022-07-05T00:04:52;16.90;99.90
10883;DHT22;5494;51.796;10.952;2022-07-05T00:07:21;16.90;99.90
10883;DHT22;5494;51.796;10.952;2022-07-05T00:09:53;16.90;99.90
10883;DHT22;5494;51.796;10.952;2022-07-05T00:12:25;17.00;99.90
10883;DHT22;5494;51.796;10.952;2022-07-05T00:14:54;17.00;99.90
10883;DHT22;5494;51.796;10.952;2022-07-05T00:17:23;17.00;99.90
10883;DHT22;5494;51.796;10.952;2022-07-05T00:19:53;17.10;99.90
10883;DHT22;5494;51.796;10.952;2022-07-05T00:22:21;17.10;99.90
10883;DHT22;5494;51.796;10.952;2022-07-05T00:24:56;17.20;99.90
10883;DHT22;5494;51.796;10.952;2022-07-05T00:27:25;17.20;99.90
10883;DHT22;5494;51.796;10.952;2022-07-05T00:29:53;17.10;99.90
10883;DHT22;5494;51.796;10.952;2022-07-05T00:32:22;17.00;99.90
10883;DHT22;5494;51.796;10.952;2022-07-05T00:34:50;17.00;99.90
10883;DHT22;5494;51.796;10.952;2022-07-05T00:37:20;17.00;99.90
10883;DHT22;5494;51.796;10.952;2022-07-05T00:39:48;16.90;99.90
10883;DHT22;5494;51.796;10.952;2022-07-05T00:42:17;16.90;99.90
10883;DHT22;5494;51.796;10.952;2022-07-05T00:44:45;16.90;99.90
10883;DHT22;5494;51.796;10.952;2022-07-05T00:47:14;16.80;99.90
10883;DHT22;5494;51.796;10.952;2022-07-05T00:49:43;16.70;99.90
10883;DHT22;5494;51.796;10.952;2022-07-05T00:52:12;16.60;99.90
10883;DHT22;5494;51.796;10.952;2022-07-05T00:54:49;16.60;99.90
10883;DHT22;5494;51.796;10.952;2022-07-05T00:57:19;16.70;99.90
10883;DHT22;5494;51.796;10.952;2022-07-05T00:59:50;16.70;99.90
10883;DHT22;5494;51.796;10.952;2022-07-05T01:02:19;16.60;99.90
10883;DHT22;5494;51.796;10.952;2022-07-05T01:04:50;16.50;99.90
10883;DHT22;5494;51.796;10.952;2022-07-05T01:07:22;16.50;99.90
10883;DHT22;5494;51.796;10.952;2022-07-05T01:09:54;16.40;99.90
10883;DHT22;5494;51.796;10.952;2022-07-05T01:12:23;16.40;99.90
10883;DHT22;5494;51.796;10.952;2022-07-05T01:14:52;16.30;99.90
10883;DHT22;5494;51.796;10.952;2022-07-05T01:17:23;16.20;99.90
10883;DHT22;5494;51.796;10.952;2022-07-05T01:19:51;16.20;99.90
10883;DHT22;5494;51.796;10.952;2022-07-05T01:22:24;16.20;99.90
10883;DHT22;5494;51.796;10.952;2022-07-05T01:24:55;16.10;99.90
10883;DHT22;5494;51.796;10.952;2022-07-05T01:27:24;16.00;99.90
10883;DHT22;5494;51.796;10.952;2022-07-05T01:29:53;15.90;99.90
10883;DHT22;5494;51.796;10.952;2022-07-05T01:32:22;15.90;99.90
10883;DHT22;5494;51.796;10.952;2022-07-05T01:34:50;15.70;99.90
10883;DHT22;5494;51.796;10.952;2022-07-05T01:37:19;15.60;99.90
10883;DHT22;5494;51.796;10.952;2022-07-05T01:39:48;15.60;99.90
10883;DHT22;5494;51.796;10.952;2022-07-05T01:42:18;15.50;99.90
10883;DHT22;5494;51.796;10.952;2022-07-05T01:44:47;15.60;99.90
10883;DHT22;5494;51.796;10.952;2022-07-05T01:47:15;15.60;99.90
10883;DHT22;5494;51.796;10.952;2022-07-05T01:49:48;15.60;99.90
10883;DHT22;5494;51.796;10.952;2022-07-05T01:52:21;15.50;99.90
10883;DHT22;5494;51.796;10.952;2022-07-05T01:54:50;15.50;99.90
10883;DHT22;5494;51.796;10.952;2022-07-05T01:57:20;15.50;99.90
10883;DHT22;5494;51.796;10.952;2022-07-05T01:59:48;15.50;99.90
10883;DHT22;5494;51.796;10.952;2022-07-05T02:02:17;15.40;99.90
10883;DHT22;5494;51.796;10.952;2022-07-05T02:04:47;15.30;99.90
10883;DHT22;5494;51.796;10.952;2022-07-05T02:07:16;15.30;99.90
10883;DHT22;5494;51.796;10.952;2022-07-05T02:09:45;15.20;99.90
10883;DHT22;5494;51.796;10.952;2022-07-05T02:12:14;15.20;99.90
10883;DHT22;5494;51.796;10.952;2022-07-05T02:14:44;15.10;99.90
10883;DHT22;5494;51.796;10.952;2022-07-05T02:17:16;15.10;99.90
10883;DHT22;5494;51.796;10.952;2022-07-05T02:19:49;15.10;99.90
10883;DHT22;5494;51.796;10.952;2022-07-05T02:22:19;15.10;99.90
10883;DHT22;5494;51.796;10.952;2022-07-05T02:24:48;15.10;99.90
10883;DHT22;5494;51.796;10.952;2022-07-05T02:27:21;15.20;99.90
10883;DHT22;5494;51.796;10.952;2022-07-05T02:29:53;15.20;99.90
10883;DHT22;5494;51.796;10.952;2022-07-05T02:32:29;15.20;99.90
10883;DHT22;5494;51.796;10.952;2022-07-05T02:35:00;15.20;99.90
10883;DHT22;5494;51.796;10.952;2022-07-05T02:37:29;15.20;99.90
10883;DHT22;5494;51.796;10.952;2022-07-05T02:39:58;15.20;99.90
10883;DHT22;5494;51.796;10.952;2022-07-05T02:42:29;15.30;99.90
10883;DHT22;5494;51.796;10.952;2022-07-05T02:44:59;15.30;99.90
10883;DHT22;5494;51.796;10.952;2022-07-05T02:47:29;15.40;99.90
10883;DHT22;5494;51.796;10.952;2022-07-05T02:49:58;15.40;99.90
10883;DHT22;5494;51.796;10.952;2022-07-05T02:52:31;15.40;99.90
10883;DHT22;5494;51.796;10.952;2022-07-05T02:55:00;15.40;99.90
10883;DHT22;5494;51.796;10.952;2022-07-05T02:57:29;15.40;99.90
10883;DHT22;5494;51.796;10.952;2022-07-05T03:00:01;15.40;99.90
10883;DHT22;5494;51.796;10.952;2022-07-05T03:02:39;15.40;99.90
10883;DHT22;5494;51.796;10.952;2022-07-05T03:05:09;15.40;99.90
10883;DHT22;5494;51.796;10.952;2022-07-05T03:07:42;15.50;99.90
10883;DHT22;5494;51.796;10.952;2022-07-05T03:10:10;15.40;99.90
10883;DHT22;5494;51.796;10.952;2022-07-05T03:12:39;15.30;99.90
10883;DHT22;5494;51.796;10.952;2022-07-05T03:15:13;15.30;99.90
10883;DHT22;5494;51.796;10.952;2022-07-05T03:17:42;15.30;99.90
10883;DHT22;5494;51.796;10.952;2022-07-05T03:20:13;15.30;99.90
10883;DHT22;5494;51.796;10.952;2022-07-05T03:22:42;15.30;99.90
10883;DHT22;5494;51.796;10.952;2022-07-05T03:25:11;15.30;99.90
10883;DHT22;5494;51.796;10.952;2022-07-05T03:27:40;15.30;99.90
10883;DHT22;5494;51.796;10.952;2022-07-05T03:30:12;15.40;99.90
10883;DHT22;5494;51.796;10.952;2022-07-05T03:32:45;15.40;99.90
10883;DHT22;5494;51.796;10.952;2022-07-05T03:35:13;15.50;99.90
10883;DHT22;5494;51.796;10.952;2022-07-05T03:37:43;15.50;99.90
10883;DHT22;5494;51.796;10.952;2022-07-05T03:40:12;15.60;99.90
10883;DHT22;5494;51.796;10.952;2022-07-05T03:42:40;15.60;99.90
10883;DHT22;5494;51.796;10.952;2022-07-05T03:45:10;15.80;99.90
10883;DHT22;5494;51.796;10.952;2022-07-05T03:47:41;15.90;99.90
10883;DHT22;5494;51.796;10.952;2022-07-05T03:50:12;16.00;99.90
10883;DHT22;5494;51.796;10.952;2022-07-05T03:52:42;16.10;99.90
10883;DHT22;5494;51.796;10.952;2022-07-05T03:55:11;16.20;99.90
10883;DHT22;5494;51.796;10.952;2022-07-05T03:57:40;16.30;99.90
10883;DHT22;5494;51.796;10.952;2022-07-05T04:00:10;16.50;99.90
10883;DHT22;5494;51.796;10.952;2022-07-05T04:02:44;16.60;99.90
10883;DHT22;5494;51.796;10.952;2022-07-05T04:05:15;16.80;99.90
10883;DHT22;5494;51.796;10.952;2022-07-05T04:07:48;17.00;99.90
10883;DHT22;5494;51.796;10.952;2022-07-05T04:10:22;17.20;99.90
10883;DHT22;5494;51.796;10.952;2022-07-05T04:12:51;17.50;99.90
10883;DHT22;5494;51.796;10.952;2022-07-05T04:15:21;17.70;99.90
10883;DHT22;5494;51.796;10.952;2022-07-05T04:17:54;17.90;99.90
10883;DHT22;5494;51.796;10.952;2022-07-05T04:20:27;18.20;99.90
10883;DHT22;5494;51.796;10.952;2022-07-05T04:22:57;18.40;99.90
10883;DHT22;5494;51.796;10.952;2022-07-05T04:25:26;18.80;99.90
10883;DHT22;5494;51.796;10.952;2022-07-05T04:28:02;18.90;99.90
10883;DHT22;5494;51.796;10.952;2022-07-05T04:30:33;19.20;99.90
10883;DHT22;5494;51.796;10.952;2022-07-05T04:33:05;19.40;99.90
10883;DHT22;5494;51.796;10.952;2022-07-05T04:35:34;19.70;99.90
10883;DHT22;5494;51.796;10.952;2022-07-05T04:38:02;20.00;99.90
10883;DHT22;5494;51.796;10.952;2022-07-05T04:40:32;20.40;99.90
10883;DHT22;5494;51.796;10.952;2022-07-05T04:43:02;20.70;99.90
10883;DHT22;5494;51.796;10.952;2022-07-05T04:45:30;21.10;99.90
10883;DHT22;5494;51.796;10.952;2022-07-05T04:47:59;21.70;99.90
10883;DHT22;5494;51.796;10.952;2022-07-05T04:50:31;22.30;99.90
10883;DHT22;5494;51.796;10.952;2022-07-05T04:52:59;22.80;99.90
10883;DHT22;5494;51.796;10.952;2022-07-05T04:55:28;23.20;99.90
10883;DHT22;5494;51.796;10.952;2022-07-05T04:57:57;23.50;99.90
10883;DHT22;5494;51.796;10.952;2022-07-05T05:00:26;23.80;99.90
10883;DHT22;5494;51.796;10.952;2022-07-05T05:02:55;23.90;99.90
10883;DHT22;5494;51.796;10.952;2022-07-05T05:05:24;24.10;99.90
10883;DHT22;5494;51.796;10.952;2022-07-05T05:07:53;24.30;99.90
10883;DHT22;5494;51.796;10.952;2022-07-05T05:10:22;24.60;99.90
10883;DHT22;5494;51.796;10.952;2022-07-05T05:12:51;24.80;99.90
10883;DHT22;5494;51.796;10.952;2022-07-05T05:15:20;25.10;99.90
10883;DHT22;5494;51.796;10.952;2022-07-05T05:17:48;25.40;99.90
10883;DHT22;5494;51.796;10.952;2022-07-05T05:20:18;25.80;99.90
10883;DHT22;5494;51.796;10.952;2022-07-05T05:22:47;26.00;99.90
10883;DHT22;5494;51.796;10.952;2022-07-05T05:25:18;26.80;99.90
10883;DHT22;5494;51.796;10.952;2022-07-05T05:27:48;27.30;99.90
10883;DHT22;5494;51.796;10.952;2022-07-05T05:30:18;27.90;98.90
10883;DHT22;5494;51.796;10.952;2022-07-05T05:32:47;28.00;97.80
10883;DHT22;5494;51.796;10.952;2022-07-05T05:35:16;28.60;96.90
10883;DHT22;5494;51.796;10.952;2022-07-05T05:37:49;29.10;96.10
10883;DHT22;5494;51.796;10.952;2022-07-05T05:40:21;28.70;95.80
10883;DHT22;5494;51.796;10.952;2022-07-05T05:42:51;28.60;96.00
10883;DHT22;5494;51.796;10.952;2022-07-05T05:45:21;28.80;95.80
10883;DHT22;5494;51.796;10.952;2022-07-05T05:47:52;29.80;93.70
10883;DHT22;5494;51.796;10.952;2022-07-05T05:50:22;29.30;93.60
10883;DHT22;5494;51.796;10.952;2022-07-05T05:52:53;27.30;96.50
10883;DHT22;5494;51.796;10.952;2022-07-05T05:55:25;26.10;98.70
10883;DHT22;5494;51.796;10.952;2022-07-05T05:57:55;25.20;99.90
10883;DHT22;5494;51.796;10.952;2022-07-05T06:00:24;24.40;99.90
10883;DHT22;5494;51.796;10.952;2022-07-05T06:02:53;23.90;99.90
10883;DHT22;5494;51.796;10.952;2022-07-05T06:05:22;24.20;99.90
10883;DHT22;5494;51.796;10.952;2022-07-05T06:07:53;23.80;99.90
10883;DHT22;5494;51.796;10.952;2022-07-05T06:10:25;23.40;99.90
10883;DHT22;5494;51.796;10.952;2022-07-05T06:12:57;22.90;99.90
10883;DHT22;5494;51.796;10.952;2022-07-05T06:15:27;22.70;99.90
10883;DHT22;5494;51.796;10.952;2022-07-05T06:17:56;23.50;99.90
10883;DHT22;5494;51.796;10.952;2022-07-05T06:20:26;24.80;99.90
10883;DHT22;5494;51.796;10.952;2022-07-05T06:22:57;25.00;99.90
10883;DHT22;5494;51.796;10.952;2022-07-05T06:25:29;24.80;99.90
10883;DHT22;5494;51.796;10.952;2022-07-05T06:27:59;24.60;99.90
10883;DHT22;5494;51.796;10.952;2022-07-05T06:30:30;25.00;99.90
10883;DHT22;5494;51.796;10.952;2022-07-05T06:33:00;24.90;99.90
10883;DHT22;5494;51.796;10.952;2022-07-05T06:35:30;24.40;99.90
10883;DHT22;5494;51.796;10.952;2022-07-05T06:38:01;23.60;99.90
10883;DHT22;5494;51.796;10.952;2022-07-05T06:40:32;23.30;99.90
10883;DHT22;5494;51.796;10.952;2022-07-05T06:43:05;24.00;99.90
10883;DHT22;5494;51.796;10.952;2022-07-05T06:45:41;24.50;99.90
10883;DHT22;5494;51.796;10.952;2022-07-05T06:48:11;25.50;99.90
10883;DHT22;5494;51.796;10.952;2022-07-05T06:50:43;25.80;99.90
10883;DHT22;5494;51.796;10.952;2022-07-05T06:53:12;26.70;99.30
10883;DHT22;5494;51.796;10.952;2022-07-05T06:55:42;26.30;99.90
10883;DHT22;5494;51.796;10.952;2022-07-05T06:58:21;26.80;99.30
10883;DHT22;5494;51.796;10.952;2022-07-05T07:00:50;26.60;99.00
10883;DHT22;5494;51.796;10.952;2022-07-05T07:03:39;27.30;98.00
10883;DHT22;5494;51.796;10.952;2022-07-05T07:06:27;27.50;97.30
10883;DHT22;5494;51.796;10.952;2022-07-05T07:08:56;27.20;97.80
10883;DHT22;5494;51.796;10.952;2022-07-05T07:11:44;26.90;98.00
10883;DHT22;5494;51.796;10.952;2022-07-05T07:14:13;27.00;98.20
10883;DHT22;5494;51.796;10.952;2022-07-05T07:16:41;27.70;97.00
10883;DHT22;5494;51.796;10.952;2022-07-05T07:19:10;28.50;96.20
10883;DHT22;5494;51.796;10.952;2022-07-05T07:21:42;28.70;94.70
10883;DHT22;5494;51.796;10.952;2022-07-05T07:24:11;28.40;95.00
10883;DHT22;5494;51.796;10.952;2022-07-05T07:26:40;28.20;95.60
10883;DHT22;5494;51.796;10.952;2022-07-05T07:29:28;27.60;96.60
10883;DHT22;5494;51.796;10.952;2022-07-05T07:31:57;27.20;96.60
10883;DHT22;5494;51.796;10.952;2022-07-05T07:34:27;26.70;97.60
10883;DHT22;5494;51.796;10.952;2022-07-05T07:36:57;27.30;96.50
10883;DHT22;5494;51.796;10.952;2022-07-05T07:39:26;28.10;95.40
10883;DHT22;5494;51.796;10.952;2022-07-05T07:41:54;28.50;94.90
10883;DHT22;5494;51.796;10.952;2022-07-05T07:44:23;28.20;95.20
10883;DHT22;5494;51.796;10.952;2022-07-05T07:46:53;27.80;95.50
10883;DHT22;5494;51.796;10.952;2022-07-05T07:49:22;28.40;95.50
10883;DHT22;5494;51.796;10.952;2022-07-05T07:51:51;29.20;93.70
10883;DHT22;5494;51.796;10.952;2022-07-05T07:54:20;28.70;93.70
10883;DHT22;5494;51.796;10.952;2022-07-05T07:56:48;28.30;94.00
10883;DHT22;5494;51.796;10.952;2022-07-05T07:59:17;27.80;94.30
10883;DHT22;5494;51.796;10.952;2022-07-05T08:01:45;27.20;95.30
10883;DHT22;5494;51.796;10.952;2022-07-05T08:04:15;26.80;96.20
10883;DHT22;5494;51.796;10.952;2022-07-05T08:06:44;26.20;97.10
10883;DHT22;5494;51.796;10.952;2022-07-05T08:09:13;25.50;98.20
10883;DHT22;5494;51.796;10.952;2022-07-05T08:11:45;24.60;99.90
10883;DHT22;5494;51.796;10.952;2022-07-05T08:14:14;24.50;99.90
10883;DHT22;5494;51.796;10.952;2022-07-05T08:16:47;24.70;99.90
10883;DHT22;5494;51.796;10.952;2022-07-05T08:19:20;25.00;99.90
10883;DHT22;5494;51.796;10.952;2022-07-05T08:22:07;25.10;99.90
10883;DHT22;5494;51.796;10.952;2022-07-05T08:24:38;25.30;99.50
10883;DHT22;5494;51.796;10.952;2022-07-05T08:27:08;25.30;99.70
10883;DHT22;5494;51.796;10.952;2022-07-05T08:29:37;25.20;99.90
10883;DHT22;5494;51.796;10.952;2022-07-05T08:32:06;24.90;99.90
10883;DHT22;5494;51.796;10.952;2022-07-05T08:34:37;24.30;99.90
10883;DHT22;5494;51.796;10.952;2022-07-05T08:37:07;23.80;99.90
10883;DHT22;5494;51.796;10.952;2022-07-05T08:39:42;23.40;99.90
10883;DHT22;5494;51.796;10.952;2022-07-05T08:42:11;23.10;99.90
10883;DHT22;5494;51.796;10.952;2022-07-05T08:44:42;22.90;99.90
10883;DHT22;5494;51.796;10.952;2022-07-05T08:47:12;23.10;99.90
10883;DHT22;5494;51.796;10.952;2022-07-05T08:49:45;23.10;99.90
10883;DHT22;5494;51.796;10.952;2022-07-05T08:52:18;23.60;99.90
10883;DHT22;5494;51.796;10.952;2022-07-05T08:54:49;23.60;99.90
10883;DHT22;5494;51.796;10.952;2022-07-05T08:57:20;23.60;99.90
10883;DHT22;5494;51.796;10.952;2022-07-05T08:59:49;23.50;99.90
10883;DHT22;5494;51.796;10.952;2022-07-05T09:02:17;23.40;99.90
10883;DHT22;5494;51.796;10.952;2022-07-05T09:04:50;23.80;99.90
10883;DHT22;5494;51.796;10.952;2022-07-05T09:07:20;24.30;99.90
10883;DHT22;5494;51.796;10.952;2022-07-05T09:09:51;24.60;99.90
10883;DHT22;5494;51.796;10.952;2022-07-05T09:12:19;25.30;99.90
10883;DHT22;5494;51.796;10.952;2022-07-05T09:14:53;25.70;99.80
10883;DHT22;5494;51.796;10.952;2022-07-05T09:17:22;26.20;98.50
10883;DHT22;5494;51.796;10.952;2022-07-05T09:20:09;26.30;98.40
10883;DHT22;5494;51.796;10.952;2022-07-05T09:22:44;25.90;98.90
10883;DHT22;5494;51.796;10.952;2022-07-05T09:25:19;25.80;99.00
10883;DHT22;5494;51.796;10.952;2022-07-05T09:27:52;25.90;99.10
10883;DHT22;5494;51.796;10.952;2022-07-05T09:30:32;25.90;99.10
10883;DHT22;5494;51.796;10.952;2022-07-05T09:33:02;26.10;98.50
10883;DHT22;5494;51.796;10.952;2022-07-05T09:35:37;26.60;98.10
10883;DHT22;5494;51.796;10.952;2022-07-05T09:38:17;26.70;97.70
10883;DHT22;5494;51.796;10.952;2022-07-05T09:40:48;26.40;97.90
10883;DHT22;5494;51.796;10.952;2022-07-05T09:43:18;26.40;98.20
10883;DHT22;5494;51.796;10.952;2022-07-05T09:45:53;26.10;98.60
10883;DHT22;5494;51.796;10.952;2022-07-05T09:48:23;25.90;99.10
10883;DHT22;5494;51.796;10.952;2022-07-05T09:51:08;25.60;99.30
10883;DHT22;5494;51.796;10.952;2022-07-05T09:53:59;25.40;99.60
10883;DHT22;5494;51.796;10.952;2022-07-05T09:56:44;24.90;99.90
10883;DHT22;5494;51.796;10.952;2022-07-05T09:59:14;24.70;99.90
10883;DHT22;5494;51.796;10.952;2022-07-05T10:01:45;24.60;99.90
10883;DHT22;5494;51.796;10.952;2022-07-05T10:04:14;24.50;99.90
10883;DHT22;5494;51.796;10.952;2022-07-05T10:06:45;24.50;99.90
10883;DHT22;5494;51.796;10.952;2022-07-05T10:09:15;24.50;99.90
10883;DHT22;5494;51.796;10.952;2022-07-05T10:11:46;24.60;99.90
10883;DHT22;5494;51.796;10.952;2022-07-05T10:14:16;24.50;99.90
10883;DHT22;5494;51.796;10.952;2022-07-05T10:16:53;24.40;99.90
10883;DHT22;5494;51.796;10.952;2022-07-05T10:19:32;24.50;99.90
10883;DHT22;5494;51.796;10.952;2022-07-05T10:22:07;25.20;99.90
10883;DHT22;5494;51.796;10.952;2022-07-05T10:24:45;26.00;99.90
10883;DHT22;5494;51.796;10.952;2022-07-05T10:27:17;26.80;98.80
10883;DHT22;5494;51.796;10.952;2022-07-05T10:29:48;27.50;97.50
10883;DHT22;5494;51.796;10.952;2022-07-05T10:32:18;27.80;97.00
10883;DHT22;5494;51.796;10.952;2022-07-05T10:34:47;28.00;95.30
10883;DHT22;5494;51.796;10.952;2022-07-05T10:37:24;28.00;94.90
10883;DHT22;5494;51.796;10.952;2022-07-05T10:39:58;27.50;94.90
10883;DHT22;5494;51.796;10.952;2022-07-05T10:42:32;27.30;95.50
10883;DHT22;5494;51.796;10.952;2022-07-05T10:45:26;26.90;95.70
10883;DHT22;5494;51.796;10.952;2022-07-05T10:48:15;26.70;96.30
10883;DHT22;5494;51.796;10.952;2022-07-05T10:50:49;26.40;96.80
10883;DHT22;5494;51.796;10.952;2022-07-05T10:53:23;26.20;97.20
10883;DHT22;5494;51.796;10.952;2022-07-05T10:55:54;25.90;97.70
10883;DHT22;5494;51.796;10.952;2022-07-05T10:58:30;25.70;97.80
10883;DHT22;5494;51.796;10.952;2022-07-05T11:01:31;25.50;98.50
10883;DHT22;5494;51.796;10.952;2022-07-05T11:04:19;25.60;98.10
10883;DHT22;5494;51.796;10.952;2022-07-05T11:06:54;25.80;97.60
10883;DHT22;5494;51.796;10.952;2022-07-05T11:09:24;25.80;97.30
10883;DHT22;5494;51.796;10.952;2022-07-05T11:12:06;26.00;97.60
10883;DHT22;5494;51.796;10.952;2022-07-05T11:15:07;26.10;98.40
10883;DHT22;5494;51.796;10.952;2022-07-05T11:17:38;25.90;98.30
10883;DHT22;5494;51.796;10.952;2022-07-05T11:20:30;25.80;98.40
10883;DHT22;5494;51.796;10.952;2022-07-05T11:23:02;25.80;99.00
10883;DHT22;5494;51.796;10.952;2022-07-05T11:25:35;25.50;98.70
10883;DHT22;5494;51.796;10.952;2022-07-05T11:28:17;25.40;99.50
10883;DHT22;5494;51.796;10.952;2022-07-05T11:30:52;25.60;98.60
10883;DHT22;5494;51.796;10.952;2022-07-05T11:33:35;25.70;98.40
10883;DHT22;5494;51.796;10.952;2022-07-05T11:36:21;25.70;98.00
10883;DHT22;5494;51.796;10.952;2022-07-05T11:39:11;25.60;98.40
10883;DHT22;5494;51.796;10.952;2022-07-05T11:41:45;25.60;97.90
10883;DHT22;5494;51.796;10.952;2022-07-05T11:44:17;25.50;97.50
10883;DHT22;5494;51.796;10.952;2022-07-05T11:46:46;25.30;97.80
10883;DHT22;5494;51.796;10.952;2022-07-05T11:49:21;24.90;98.20
10883;DHT22;5494;51.796;10.952;2022-07-05T11:51:55;24.50;99.00
10883;DHT22;5494;51.796;10.952;2022-07-05T11:54:25;24.50;99.20
10883;DHT22;5494;51.796;10.952;2022-07-05T11:56:57;24.50;99.00
10883;DHT22;5494;51.796;10.952;2022-07-05T11:59:27;24.60;98.90
10883;DHT22;5494;51.796;10.952;2022-07-05T12:01:57;24.70;98.80
10883;DHT22;5494;51.796;10.952;2022-07-05T12:04:28;24.80;98.40
10883;DHT22;5494;51.796;10.952;2022-07-05T12:06:58;24.80;97.80
10883;DHT22;5494;51.796;10.952;2022-07-05T12:09:28;25.00;97.60
10883;DHT22;5494;51.796;10.952;2022-07-05T12:12:20;25.00;97.70
10883;DHT22;5494;51.796;10.952;2022-07-05T12:15:08;25.00;97.60
10883;DHT22;5494;51.796;10.952;2022-07-05T12:17:38;25.10;96.90
10883;DHT22;5494;51.796;10.952;2022-07-05T12:20:10;25.20;97.10
10883;DHT22;5494;51.796;10.952;2022-07-05T12:22:42;24.90;97.00
10883;DHT22;5494;51.796;10.952;2022-07-05T12:25:14;24.90;97.10
10883;DHT22;5494;51.796;10.952;2022-07-05T12:27:46;24.90;96.40
10883;DHT22;5494;51.796;10.952;2022-07-05T12:30:18;24.90;96.80
10883;DHT22;5494;51.796;10.952;2022-07-05T12:32:55;25.10;95.90
10883;DHT22;5494;51.796;10.952;2022-07-05T12:35:34;25.30;95.10
10883;DHT22;5494;51.796;10.952;2022-07-05T12:38:05;25.40;94.80
10883;DHT22;5494;51.796;10.952;2022-07-05T12:40:35;25.40;94.90
10883;DHT22;5494;51.796;10.952;2022-07-05T12:43:08;25.40;95.30
10883;DHT22;5494;51.796;10.952;2022-07-05T12:45:38;25.40;95.10
10883;DHT22;5494;51.796;10.952;2022-07-05T12:48:10;25.50;94.90
10883;DHT22;5494;51.796;10.952;2022-07-05T12:50:47;25.40;94.60
10883;DHT22;5494;51.796;10.952;2022-07-05T12:53:49;25.30;94.30
10883;DHT22;5494;51.796;10.952;2022-07-05T12:56:35;25.20;94.50
10883;DHT22;5494;51.796;10.952;2022-07-05T12:59:59;25.20;94.80
10883;DHT22;5494;51.796;10.952;2022-07-05T13:02:34;24.90;94.70
10883;DHT22;5494;51.796;10.952;2022-07-05T13:05:06;24.80;94.30
10883;DHT22;5494;51.796;10.952;2022-07-05T13:07:42;24.50;94.70
10883;DHT22;5494;51.796;10.952;2022-07-05T13:10:21;24.50;95.00
10883;DHT22;5494;51.796;10.952;2022-07-05T13:12:51;24.10;95.30
10883;DHT22;5494;51.796;10.952;2022-07-05T13:15:22;24.10;95.70
10883;DHT22;5494;51.796;10.952;2022-07-05T13:17:50;24.10;95.20
10883;DHT22;5494;51.796;10.952;2022-07-05T13:20:19;23.80;95.50
10883;DHT22;5494;51.796;10.952;2022-07-05T13:22:50;23.70;96.00
10883;DHT22;5494;51.796;10.952;2022-07-05T13:25:19;23.90;95.70
10883;DHT22;5494;51.796;10.952;2022-07-05T13:27:47;24.00;94.70
10883;DHT22;5494;51.796;10.952;2022-07-05T13:30:16;24.10;94.80
10883;DHT22;5494;51.796;10.952;2022-07-05T13:32:45;24.20;94.60
10883;DHT22;5494;51.796;10.952;2022-07-05T13:35:14;24.30;94.60
10883;DHT22;5494;51.796;10.952;2022-07-05T13:37:42;24.30;94.50
10883;DHT22;5494;51.796;10.952;2022-07-05T13:40:11;24.50;94.50
10883;DHT22;5494;51.796;10.952;2022-07-05T13:42:40;24.70;94.40
10883;DHT22;5494;51.796;10.952;2022-07-05T13:45:09;24.90;93.10
10883;DHT22;5494;51.796;10.952;2022-07-05T13:47:40;24.90;93.40
10883;DHT22;5494;51.796;10.952;2022-07-05T13:50:10;24.90;93.70
10883;DHT22;5494;51.796;10.952;2022-07-05T13:52:56;24.90;93.30
10883;DHT22;5494;51.796;10.952;2022-07-05T13:55:25;24.90;93.00
10883;DHT22;5494;51.796;10.952;2022-07-05T13:57:54;24.90;92.10
10883;DHT22;5494;51.796;10.952;2022-07-05T14:00:24;24.80;92.10
10883;DHT22;5494;51.796;10.952;2022-07-05T14:02:53;24.70;92.40
10883;DHT22;5494;51.796;10.952;2022-07-05T14:05:32;24.40;92.60
10883;DHT22;5494;51.796;10.952;2022-07-05T14:08:00;24.50;92.70
10883;DHT22;5494;51.796;10.952;2022-07-05T14:10:29;24.50;92.50
10883;DHT22;5494;51.796;10.952;2022-07-05T14:12:58;23.80;92.40
10883;DHT22;5494;51.796;10.952;2022-07-05T14:15:27;24.50;91.80
10883;DHT22;5494;51.796;10.952;2022-07-05T14:17:55;24.50;91.80
10883;DHT22;5494;51.796;10.952;2022-07-05T14:20:27;24.40;91.90
10883;DHT22;5494;51.796;10.952;2022-07-05T14:22:58;24.40;92.10
10883;DHT22;5494;51.796;10.952;2022-07-05T14:25:27;24.30;91.80
10883;DHT22;5494;51.796;10.952;2022-07-05T14:27:55;24.30;91.80
10883;DHT22;5494;51.796;10.952;2022-07-05T14:30:25;24.30;91.30
10883;DHT22;5494;51.796;10.952;2022-07-05T14:32:55;24.30;91.30
10883;DHT22;5494;51.796;10.952;2022-07-05T14:35:23;24.40;91.40
10883;DHT22;5494;51.796;10.952;2022-07-05T14:37:51;24.40;90.70
10883;DHT22;5494;51.796;10.952;2022-07-05T14:40:21;24.40;91.00
10883;DHT22;5494;51.796;10.952;2022-07-05T14:42:51;24.60;90.70
10883;DHT22;5494;51.796;10.952;2022-07-05T14:45:20;24.70;90.80
10883;DHT22;5494;51.796;10.952;2022-07-05T14:47:54;24.80;90.40
10883;DHT22;5494;51.796;10.952;2022-07-05T14:50:23;24.70;90.90
10883;DHT22;5494;51.796;10.952;2022-07-05T14:52:52;24.70;91.10
10883;DHT22;5494;51.796;10.952;2022-07-05T14:55:22;24.70;90.30
10883;DHT22;5494;51.796;10.952;2022-07-05T14:57:50;24.60;90.10
10883;DHT22;5494;51.796;10.952;2022-07-05T15:00:19;24.60;90.50
10883;DHT22;5494;51.796;10.952;2022-07-05T15:02:47;24.70;90.20
10883;DHT22;5494;51.796;10.952;2022-07-05T15:05:22;24.70;90.20
10883;DHT22;5494;51.796;10.952;2022-07-05T15:07:51;24.70;89.20
10883;DHT22;5494;51.796;10.952;2022-07-05T15:10:19;24.70;89.10
10883;DHT22;5494;51.796;10.952;2022-07-05T15:12:49;24.60;88.60
10883;DHT22;5494;51.796;10.952;2022-07-05T15:15:17;24.50;89.10
10883;DHT22;5494;51.796;10.952;2022-07-05T15:17:46;24.40;89.60
10883;DHT22;5494;51.796;10.952;2022-07-05T15:20:15;24.40;89.20
10883;DHT22;5494;51.796;10.952;2022-07-05T15:22:46;24.30;89.40
10883;DHT22;5494;51.796;10.952;2022-07-05T15:25:15;24.30;89.60
10883;DHT22;5494;51.796;10.952;2022-07-05T15:27:44;24.30;89.40
10883;DHT22;5494;51.796;10.952;2022-07-05T15:30:15;24.10;88.80
10883;DHT22;5494;51.796;10.952;2022-07-05T15:32:44;24.00;89.10
10883;DHT22;5494;51.796;10.952;2022-07-05T15:35:13;23.90;90.00
10883;DHT22;5494;51.796;10.952;2022-07-05T15:37:43;23.90;89.90
10883;DHT22;5494;51.796;10.952;2022-07-05T15:40:12;23.90;90.00
10883;DHT22;5494;51.796;10.952;2022-07-05T15:42:40;23.80;90.00
10883;DHT22;5494;51.796;10.952;2022-07-05T15:45:09;23.80;89.60
10883;DHT22;5494;51.796;10.952;2022-07-05T15:47:39;23.80;89.80
10883;DHT22;5494;51.796;10.952;2022-07-05T15:50:09;23.80;89.40
10883;DHT22;5494;51.796;10.952;2022-07-05T15:52:40;23.90;88.90
10883;DHT22;5494;51.796;10.952;2022-07-05T15:55:10;23.90;88.10
10883;DHT22;5494;51.796;10.952;2022-07-05T15:57:38;23.80;88.20
10883;DHT22;5494;51.796;10.952;2022-07-05T16:00:08;23.80;89.30